Time;durP1;ratioP1;P1;durP2;ratioP2;P2;SDS_P1;SDS_P2;PMS_P1;PMS_P2;Temp;Humidity;BMP_temperature;BMP_pressure;BME280_temperature;BME280_humidity;BME280_pressure;Samples;Min_cycle;Max_cycle;Signal;HPM_P1;HPM_P2
2021/11/29 00:00:52;;;;;;;1.80;1.70;;;1.20;98.20;;;;;;4902787;29;20484;-77
2021/11/29 00:03:19;;;;;;;1.80;1.70;;;1.20;98.20;;;;;;4893394;29;20644;-77
2021/11/29 00:05:46;;;;;;;1.70;1.60;;;1.10;98.20;;;;;;4899724;29;20470;-76
2021/11/29 00:08:14;;;;;;;1.90;1.80;;;1.10;98.20;;;;;;4892275;29;20993;-76
2021/11/29 00:10:41;;;;;;;1.70;1.60;;;1.00;98.20;;;;;;4911349;29;20512;-75
2021/11/29 00:13:08;;;;;;;1.70;1.60;;;1.00;98.20;;;;;;4908760;28;20476;-76
2021/11/29 00:15:35;;;;;;;1.70;1.60;;;1.00;98.20;;;;;;4904750;29;20469;-76
2021/11/29 00:18:04;;;;;;;1.83;1.73;;;0.90;98.20;;;;;;4910626;29;20494;-77
2021/11/29 00:20:31;;;;;;;1.80;1.70;;;0.90;98.20;;;;;;4902038;29;20754;-75
2021/11/29 00:22:59;;;;;;;1.70;1.60;;;0.90;98.20;;;;;;4903442;29;20486;-75
2021/11/29 00:25:26;;;;;;;1.80;1.70;;;0.80;98.20;;;;;;4900127;29;20534;-76
2021/11/29 00:27:53;;;;;;;1.73;1.63;;;0.80;98.20;;;;;;4902559;29;20488;-75
2021/11/29 00:30:21;;;;;;;1.80;1.70;;;0.70;98.20;;;;;;4901929;29;20491;-76
2021/11/29 00:32:48;;;;;;;1.80;1.70;;;0.70;98.20;;;;;;4909346;29;20512;-75
2021/11/29 00:35:16;;;;;;;1.80;1.70;;;0.70;98.20;;;;;;4898195;29;20468;-75
2021/11/29 00:37:43;;;;;;;1.80;1.70;;;0.70;98.20;;;;;;4896139;29;20551;-75
2021/11/29 00:40:12;;;;;;;1.70;1.60;;;0.80;98.20;;;;;;4907574;29;20496;-75
2021/11/29 00:42:39;;;;;;;1.80;1.70;;;0.80;98.20;;;;;;4911308;29;21076;-75
2021/11/29 00:45:08;;;;;;;1.73;1.63;;;0.80;98.20;;;;;;4902100;29;20521;-74
2021/11/29 00:47:35;;;;;;;1.70;1.57;;;0.90;98.20;;;;;;4897231;29;20512;-75
2021/11/29 00:50:02;;;;;;;1.80;1.70;;;0.90;98.20;;;;;;4905191;29;20994;-75
2021/11/29 00:52:30;;;;;;;1.80;1.70;;;0.90;98.20;;;;;;4897644;29;20565;-75
2021/11/29 00:54:57;;;;;;;1.70;1.60;;;0.90;98.20;;;;;;4906285;29;20834;-74
2021/11/29 00:57:24;;;;;;;1.90;1.80;;;0.90;98.20;;;;;;4898570;29;20488;-75
2021/11/29 00:59:51;;;;;;;1.90;1.80;;;0.90;98.20;;;;;;4901019;29;20470;-76
2021/11/29 01:02:20;;;;;;;1.70;1.50;;;0.90;98.20;;;;;;4890454;29;20753;-75
2021/11/29 01:04:48;;;;;;;1.90;1.80;;;1.00;98.20;;;;;;4899520;29;20517;-75
2021/11/29 01:07:16;;;;;;;1.70;1.60;;;0.90;98.20;;;;;;4894021;29;20476;-74
2021/11/29 01:09:45;;;;;;;1.70;1.60;;;1.00;98.20;;;;;;4910936;29;20662;-75
2021/11/29 01:12:12;;;;;;;1.73;1.63;;;1.00;98.20;;;;;;4890031;29;21407;-75
2021/11/29 01:14:39;;;;;;;1.80;1.70;;;1.00;98.20;;;;;;4903087;29;20698;-75
2021/11/29 01:17:06;;;;;;;1.67;1.50;;;1.10;98.20;;;;;;4896370;29;20484;-76
2021/11/29 01:19:33;;;;;;;1.70;1.60;;;1.10;98.20;;;;;;4912906;29;20529;-75
2021/11/29 01:22:00;;;;;;;1.70;1.60;;;1.10;98.20;;;;;;4900923;29;20861;-75
2021/11/29 01:24:27;;;;;;;1.70;1.60;;;1.10;98.20;;;;;;4909252;29;20508;-76
2021/11/29 01:26:55;;;;;;;1.70;1.60;;;1.10;98.20;;;;;;4895577;29;20518;-76
2021/11/29 01:29:22;;;;;;;1.70;1.60;;;1.10;98.20;;;;;;4902016;29;20469;-74
2021/11/29 01:31:50;;;;;;;1.70;1.60;;;1.10;98.20;;;;;;4884194;29;21019;-75
2021/11/29 01:34:18;;;;;;;1.67;1.50;;;1.10;98.20;;;;;;4907419;29;20497;-76
2021/11/29 01:36:45;;;;;;;1.70;1.50;;;1.10;98.20;;;;;;4899065;29;20540;-76
2021/11/29 01:39:12;;;;;;;1.70;1.60;;;1.00;98.20;;;;;;4909645;29;20468;-77
2021/11/29 01:41:42;;;;;;;1.70;1.60;;;1.00;98.20;;;;;;4899649;29;20500;-75
2021/11/29 01:44:11;;;;;;;1.70;1.60;;;1.00;98.20;;;;;;4905927;29;20576;-75
2021/11/29 01:46:39;;;;;;;1.83;1.73;;;1.00;98.20;;;;;;4898467;29;20520;-76
2021/11/29 01:49:06;;;;;;;1.70;1.60;;;1.00;98.20;;;;;;4909293;29;20568;-76
2021/11/29 01:51:33;;;;;;;1.70;1.60;;;1.00;98.20;;;;;;4899065;29;20509;-77
2021/11/29 01:54:00;;;;;;;1.70;1.60;;;1.00;98.20;;;;;;4911701;29;20464;-76
2021/11/29 01:56:27;;;;;;;1.70;1.60;;;1.00;98.20;;;;;;4882270;29;20856;-74
2021/11/29 01:58:54;;;;;;;1.70;1.60;;;0.90;98.20;;;;;;4908160;29;20476;-76
2021/11/29 02:01:25;;;;;;;1.80;1.70;;;0.90;98.20;;;;;;4883349;29;20604;-75
2021/11/29 02:03:56;;;;;;;1.80;1.70;;;0.90;98.20;;;;;;4906492;29;21035;-75
2021/11/29 02:06:24;;;;;;;1.80;1.70;;;0.90;98.20;;;;;;4893406;29;20525;-76
2021/11/29 02:08:51;;;;;;;2.90;2.70;;;0.90;98.20;;;;;;4913841;29;20530;-74
2021/11/29 02:11:18;;;;;;;1.70;1.60;;;0.90;98.20;;;;;;4894498;29;21213;-76
2021/11/29 02:13:45;;;;;;;1.70;1.60;;;0.90;98.20;;;;;;4909875;29;20499;-76
2021/11/29 02:16:12;;;;;;;1.80;1.70;;;0.90;98.20;;;;;;4896835;29;20490;-75
2021/11/29 02:18:41;;;;;;;1.70;1.60;;;0.80;98.20;;;;;;4914080;29;20484;-76
2021/11/29 02:21:11;;;;;;;1.77;1.67;;;0.80;98.20;;;;;;4885715;29;20495;-77
2021/11/29 02:23:42;;;;;;;1.70;1.60;;;0.80;98.20;;;;;;4914941;29;20923;-76
2021/11/29 02:26:10;;;;;;;1.73;1.63;;;0.80;98.20;;;;;;4885230;29;20484;-74
2021/11/29 02:28:40;;;;;;;1.63;1.50;;;0.80;98.20;;;;;;4908944;29;21039;-75
2021/11/29 02:31:09;;;;;;;1.90;1.80;;;0.80;98.20;;;;;;4886373;29;20482;-75
2021/11/29 02:33:36;;;;;;;1.73;1.63;;;0.80;98.20;;;;;;4906073;29;20561;-75
2021/11/29 02:36:04;;;;;;;1.70;1.60;;;0.70;98.20;;;;;;4889869;29;20473;-77
2021/11/29 02:38:33;;;;;;;1.70;1.60;;;0.70;98.20;;;;;;4914115;29;20531;-77
2021/11/29 02:41:01;;;;;;;1.70;1.60;;;0.70;98.20;;;;;;4877107;29;20911;-75
2021/11/29 02:43:28;;;;;;;1.70;1.60;;;0.70;98.20;;;;;;4918893;29;20468;-75
2021/11/29 02:45:55;;;;;;;1.70;1.60;;;0.60;98.20;;;;;;4879617;29;20485;-73
2021/11/29 02:48:41;;;;;;;1.80;1.70;;;0.70;98.20;;;;;;4890341;29;20471;-75
2021/11/29 02:51:08;;;;;;;1.80;1.70;;;0.60;98.20;;;;;;4889175;29;20743;-74
2021/11/29 02:53:37;;;;;;;1.87;1.77;;;0.60;98.20;;;;;;4905664;29;20477;-75
2021/11/29 02:56:04;;;;;;;1.70;1.60;;;0.60;98.20;;;;;;4889563;29;20477;-77
2021/11/29 02:58:31;;;;;;;1.70;1.60;;;0.60;98.20;;;;;;4904421;29;20553;-74
2021/11/29 03:00:58;;;;;;;1.70;1.60;;;0.60;98.20;;;;;;4886287;29;20485;-73
2021/11/29 03:03:25;;;;;;;1.70;1.60;;;0.60;98.20;;;;;;4902004;29;20560;-75
2021/11/29 03:05:52;;;;;;;1.80;1.70;;;0.60;98.20;;;;;;4886661;29;20560;-74
2021/11/29 03:08:19;;;;;;;1.70;1.60;;;0.60;98.20;;;;;;4905904;29;20469;-74
2021/11/29 03:10:47;;;;;;;1.80;1.70;;;0.60;98.20;;;;;;4909841;29;20488;-74
2021/11/29 03:13:14;;;;;;;1.90;1.80;;;0.60;98.20;;;;;;4888442;29;20560;-74
2021/11/29 03:15:41;;;;;;;1.80;1.70;;;0.60;98.20;;;;;;4897387;29;20461;-74
2021/11/29 03:18:08;;;;;;;1.90;1.80;;;0.60;98.20;;;;;;4896978;29;20477;-74
2021/11/29 03:20:35;;;;;;;1.80;1.70;;;0.60;98.20;;;;;;4895902;29;21073;-75
2021/11/29 03:23:02;;;;;;;1.93;1.83;;;0.60;98.20;;;;;;4898878;29;20572;-74
2021/11/29 03:25:29;;;;;;;1.70;1.60;;;0.60;98.20;;;;;;4902473;29;20525;-75
2021/11/29 03:27:57;;;;;;;1.80;1.70;;;0.50;98.20;;;;;;4905441;29;20484;-74
2021/11/29 03:30:24;;;;;;;1.70;1.60;;;0.50;98.20;;;;;;4906209;29;21034;-74
2021/11/29 03:32:51;;;;;;;1.90;1.80;;;0.40;98.20;;;;;;4912917;29;20492;-74
2021/11/29 03:35:18;;;;;;;1.80;1.70;;;0.40;98.20;;;;;;4900902;29;20528;-73
2021/11/29 03:37:45;;;;;;;1.80;1.70;;;0.40;98.20;;;;;;4910187;29;20495;-74
2021/11/29 03:40:12;;;;;;;1.77;1.67;;;0.40;98.20;;;;;;4906864;29;20561;-74
2021/11/29 03:42:39;;;;;;;1.80;1.70;;;0.40;98.20;;;;;;4892684;29;20731;-75
2021/11/29 03:45:09;;;;;;;1.70;1.60;;;0.40;98.20;;;;;;4903073;29;20811;-74
2021/11/29 03:47:36;;;;;;;1.80;1.70;;;0.40;98.20;;;;;;4893684;29;20496;-74
2021/11/29 03:50:02;;;;;;;1.90;1.80;;;0.40;98.20;;;;;;4904464;29;20495;-73
2021/11/29 03:52:29;;;;;;;1.80;1.70;;;0.30;98.20;;;;;;4900089;29;20960;-73
2021/11/29 03:54:56;;;;;;;1.80;1.70;;;0.30;98.20;;;;;;4902113;29;20618;-74
2021/11/29 03:57:23;;;;;;;1.80;1.70;;;0.30;98.20;;;;;;4894682;29;20854;-75
2021/11/29 03:59:50;;;;;;;1.80;1.70;;;0.30;98.20;;;;;;4904438;29;20970;-74
2021/11/29 04:02:19;;;;;;;1.80;1.70;;;0.30;98.20;;;;;;4893594;29;20656;-74
2021/11/29 04:04:46;;;;;;;1.80;1.70;;;0.30;98.20;;;;;;4902853;29;20516;-75
2021/11/29 04:07:13;;;;;;;1.90;1.80;;;0.30;98.20;;;;;;4893600;29;20485;-76
2021/11/29 04:09:40;;;;;;;1.80;1.70;;;0.30;98.20;;;;;;4908092;29;20479;-74
2021/11/29 04:12:08;;;;;;;1.80;1.70;;;0.40;98.20;;;;;;4889367;29;20487;-75
2021/11/29 04:14:35;;;;;;;1.80;1.70;;;0.30;98.20;;;;;;4900374;29;20614;-76
2021/11/29 04:17:02;;;;;;;1.80;1.70;;;0.30;98.20;;;;;;4890664;29;20567;-75
2021/11/29 04:19:30;;;;;;;1.80;1.70;;;0.30;98.20;;;;;;4904372;29;20469;-74
2021/11/29 04:21:57;;;;;;;1.70;1.60;;;0.30;98.20;;;;;;4902842;29;20515;-74
2021/11/29 04:24:25;;;;;;;1.80;1.70;;;0.30;98.20;;;;;;4911037;29;21052;-74
2021/11/29 04:26:53;;;;;;;1.83;1.73;;;0.30;98.20;;;;;;4900581;29;20491;-73
2021/11/29 04:29:24;;;;;;;1.80;1.70;;;0.30;98.20;;;;;;4903474;29;20850;-76
2021/11/29 04:31:51;;;;;;;1.80;1.70;;;0.40;98.20;;;;;;4903647;29;22409;-75
2021/11/29 04:34:18;;;;;;;2.13;1.97;;;0.40;98.20;;;;;;4903804;29;20941;-73
2021/11/29 04:36:47;;;;;;;1.90;1.80;;;0.40;98.20;;;;;;4891863;29;20480;-73
2021/11/29 04:39:16;;;;;;;1.80;1.70;;;0.50;98.20;;;;;;4906744;29;20469;-75
2021/11/29 04:41:43;;;;;;;1.70;1.60;;;0.60;98.20;;;;;;4891482;29;20992;-76
2021/11/29 04:44:10;;;;;;;1.80;1.70;;;0.60;98.20;;;;;;4910502;29;20493;-73
2021/11/29 04:46:37;;;;;;;1.80;1.70;;;0.70;98.20;;;;;;4892186;29;20493;-75
2021/11/29 04:49:06;;;;;;;1.80;1.70;;;0.70;98.20;;;;;;4913757;29;20577;-76
2021/11/29 04:51:33;;;;;;;1.80;1.70;;;0.80;98.20;;;;;;4886181;29;20493;-76
2021/11/29 04:54:02;;;;;;;1.80;1.70;;;0.80;98.20;;;;;;4916133;29;20465;-75
2021/11/29 04:56:30;;;;;;;1.80;1.70;;;0.80;98.20;;;;;;4894610;29;20489;-73
2021/11/29 04:58:57;;;;;;;1.80;1.70;;;0.80;98.20;;;;;;4911050;29;20468;-74
2021/11/29 05:01:25;;;;;;;1.80;1.70;;;0.80;98.20;;;;;;4888937;29;20581;-75
2021/11/29 05:03:52;;;;;;;1.70;1.60;;;0.80;98.20;;;;;;4911887;29;20468;-75
2021/11/29 05:06:19;;;;;;;1.90;1.80;;;0.80;98.20;;;;;;4890583;29;20494;-75
2021/11/29 05:08:46;;;;;;;1.70;1.60;;;0.80;98.20;;;;;;4906414;29;20507;-78
2021/11/29 05:11:16;;;;;;;1.70;1.60;;;0.80;98.20;;;;;;4900402;29;20524;-75
2021/11/29 05:13:43;;;;;;;1.80;1.70;;;0.90;98.20;;;;;;4910929;29;20472;-75
2021/11/29 05:16:11;;;;;;;1.70;1.60;;;0.90;98.20;;;;;;4888992;29;20559;-75
2021/11/29 05:18:38;;;;;;;1.80;1.70;;;0.90;98.20;;;;;;4909419;29;20492;-75
2021/11/29 05:21:05;;;;;;;1.70;1.60;;;0.90;98.20;;;;;;4888391;29;20513;-76
2021/11/29 05:23:32;;;;;;;1.80;1.70;;;0.90;98.20;;;;;;4910680;29;20465;-74
2021/11/29 05:25:59;;;;;;;1.70;1.60;;;0.90;98.20;;;;;;4888851;29;20556;-76
2021/11/29 05:28:27;;;;;;;1.90;1.80;;;1.00;98.20;;;;;;4903522;29;20838;-76
2021/11/29 05:30:55;;;;;;;1.80;1.70;;;1.00;98.20;;;;;;4890021;29;20874;-75
2021/11/29 05:33:22;;;;;;;1.80;1.70;;;1.00;98.20;;;;;;4911770;29;20482;-73
2021/11/29 05:35:48;;;;;;;1.80;1.70;;;1.00;98.20;;;;;;4889485;29;20461;-75
2021/11/29 05:38:15;;;;;;;1.70;1.60;;;1.10;98.20;;;;;;4916465;29;20478;-75
2021/11/29 05:40:42;;;;;;;1.80;1.70;;;1.10;98.20;;;;;;4895393;29;20497;-74
2021/11/29 05:43:09;;;;;;;1.70;1.60;;;1.10;98.20;;;;;;4903779;29;20491;-75
2021/11/29 05:45:40;;;;;;;1.70;1.60;;;1.10;98.20;;;;;;4894676;29;20556;-75
2021/11/29 05:48:06;;;;;;;1.70;1.60;;;1.10;98.20;;;;;;4906151;29;20614;-76
2021/11/29 05:50:34;;;;;;;1.70;1.60;;;1.10;98.20;;;;;;4897263;29;20490;-75
2021/11/29 05:53:00;;;;;;;1.70;1.60;;;1.10;98.20;;;;;;4904028;29;20948;-76
2021/11/29 05:55:27;;;;;;;1.80;1.70;;;1.10;98.20;;;;;;4901772;29;20462;-75
2021/11/29 05:57:55;;;;;;;1.80;1.70;;;1.10;98.20;;;;;;4895277;29;20491;-74
2021/11/29 06:00:21;;;;;;;1.80;1.70;;;1.10;98.20;;;;;;4902907;29;20571;-76
2021/11/29 06:02:51;;;;;;;1.70;1.60;;;1.20;98.20;;;;;;4891882;29;20488;-74
2021/11/29 06:05:18;;;;;;;1.70;1.60;;;1.20;98.20;;;;;;4906269;29;20496;-74
2021/11/29 06:07:45;;;;;;;5.53;3.20;;;1.20;98.20;;;;;;4901795;29;20543;-73
2021/11/29 06:10:13;;;;;;;1.70;1.60;;;1.30;98.20;;;;;;4902886;29;20491;-75
2021/11/29 06:12:42;;;;;;;1.70;1.60;;;1.30;98.20;;;;;;4895618;29;20492;-76
2021/11/29 06:15:11;;;;;;;1.73;1.63;;;1.30;98.20;;;;;;4908054;29;20468;-76
2021/11/29 06:17:38;;;;;;;1.70;1.60;;;1.40;98.20;;;;;;4889832;29;20516;-75
2021/11/29 06:20:08;;;;;;;1.70;1.60;;;1.40;98.20;;;;;;4903393;29;20551;-76
2021/11/29 06:22:35;;;;;;;1.90;1.80;;;1.40;98.20;;;;;;4898598;29;20493;-74
2021/11/29 06:25:03;;;;;;;1.73;1.63;;;1.40;98.20;;;;;;4900656;29;20489;-75
2021/11/29 06:27:31;;;;;;;1.80;1.70;;;1.40;98.20;;;;;;4885771;29;20484;-75
2021/11/29 06:29:58;;;;;;;2.10;1.90;;;1.50;98.20;;;;;;4885682;29;20949;-75
2021/11/29 06:32:26;;;;;;;1.70;1.60;;;1.50;98.20;;;;;;4882653;29;21007;-75
2021/11/29 06:34:53;;;;;;;1.67;1.50;;;1.50;98.20;;;;;;4898502;29;20468;-74
2021/11/29 06:37:26;;;;;;;1.70;1.60;;;1.60;98.20;;;;;;4901075;29;20582;-75
2021/11/29 06:39:55;;;;;;;1.80;1.70;;;1.60;98.20;;;;;;4897741;29;20480;-75
2021/11/29 06:42:22;;;;;;;1.70;1.53;;;1.60;98.20;;;;;;4901666;29;20626;-74
2021/11/29 06:44:50;;;;;;;1.67;1.50;;;1.60;98.20;;;;;;4894218;29;20974;-75
2021/11/29 06:47:17;;;;;;;1.70;1.53;;;1.60;98.20;;;;;;4901491;29;20485;-75
2021/11/29 06:49:45;;;;;;;1.70;1.60;;;1.60;98.20;;;;;;4896026;29;20971;-74
2021/11/29 06:52:13;;;;;;;1.63;1.50;;;1.60;98.20;;;;;;4898842;29;20782;-75
2021/11/29 06:54:42;;;;;;;1.70;1.60;;;1.60;98.20;;;;;;4899167;29;20512;-76
2021/11/29 06:57:11;;;;;;;1.67;1.50;;;1.60;98.20;;;;;;4895772;29;20628;-76
2021/11/29 06:59:38;;;;;;;1.70;1.60;;;1.70;98.20;;;;;;4893633;29;20473;-73
2021/11/29 07:02:06;;;;;;;1.80;1.70;;;1.70;98.20;;;;;;4893175;29;20500;-75
2021/11/29 07:04:34;;;;;;;1.70;1.60;;;1.70;98.20;;;;;;4904721;29;20473;-75
2021/11/29 07:07:01;;;;;;;1.67;1.50;;;1.70;98.20;;;;;;4890607;29;20496;-75
2021/11/29 07:09:29;;;;;;;1.70;1.50;;;1.70;98.20;;;;;;4896970;29;20564;-74
2021/11/29 07:11:58;;;;;;;2.50;2.33;;;1.70;98.20;;;;;;4887953;29;20496;-75
2021/11/29 07:14:27;;;;;;;1.70;1.60;;;1.70;98.20;;;;;;4904446;29;20507;-75
2021/11/29 07:16:56;;;;;;;1.63;1.50;;;1.70;98.20;;;;;;4888561;29;22031;-74
2021/11/29 07:19:24;;;;;;;1.70;1.60;;;1.80;98.20;;;;;;4908274;29;20559;-76
2021/11/29 07:21:53;;;;;;;1.60;1.50;;;1.80;98.20;;;;;;4895794;29;20586;-74
2021/11/29 07:24:21;;;;;;;1.70;1.60;;;1.80;98.20;;;;;;4907632;29;20479;-77
2021/11/29 07:26:49;;;;;;;1.70;1.60;;;1.80;98.20;;;;;;4889222;29;20574;-77
2021/11/29 07:29:20;;;;;;;1.70;1.50;;;1.80;98.20;;;;;;4903519;29;21088;-74
2021/11/29 07:31:48;;;;;;;1.63;1.50;;;1.80;98.20;;;;;;4885111;29;20582;-73
2021/11/29 07:34:16;;;;;;;1.70;1.60;;;1.70;98.20;;;;;;4900308;29;20469;-73
2021/11/29 07:36:43;;;;;;;1.70;1.50;;;1.70;98.20;;;;;;4881831;29;20817;-75
2021/11/29 07:39:11;;;;;;;1.70;1.50;;;1.70;98.20;;;;;;4897611;29;20951;-76
2021/11/29 07:41:38;;;;;;;1.60;1.50;;;1.70;98.20;;;;;;4889901;29;20496;-76
2021/11/29 07:44:06;;;;;;;1.70;1.50;;;1.70;98.20;;;;;;4898028;29;20473;-76
2021/11/29 07:46:35;;;;;;;1.70;1.60;;;1.70;98.20;;;;;;4885139;29;20483;-78
2021/11/29 07:49:03;;;;;;;1.70;1.53;;;1.70;98.20;;;;;;4908020;29;20476;-77
2021/11/29 07:51:30;;;;;;;1.70;1.60;;;1.70;98.20;;;;;;4888306;29;20559;-77
2021/11/29 07:53:57;;;;;;;1.70;1.53;;;1.80;98.20;;;;;;4899644;29;20552;-78
2021/11/29 07:56:25;;;;;;;1.67;1.50;;;1.80;98.20;;;;;;4881379;29;20499;-75
2021/11/29 07:58:52;;;;;;;1.70;1.60;;;1.80;98.20;;;;;;4905549;29;20855;-74
2021/11/29 08:01:20;;;;;;;1.80;1.70;;;1.90;98.20;;;;;;4886041;29;20791;-74
2021/11/29 08:03:48;;;;;;;1.70;1.60;;;1.90;98.20;;;;;;4897412;29;20511;-75
2021/11/29 08:06:16;;;;;;;1.63;1.50;;;1.90;98.20;;;;;;4882797;29;20503;-74
2021/11/29 08:08:44;;;;;;;1.70;1.60;;;1.90;98.20;;;;;;4903213;29;20473;-74
2021/11/29 08:11:11;;;;;;;1.70;1.50;;;2.00;98.20;;;;;;4889387;29;20496;-76
2021/11/29 08:13:39;;;;;;;1.70;1.60;;;2.00;98.20;;;;;;4904625;29;21157;-75
2021/11/29 08:16:06;;;;;;;1.73;1.63;;;2.00;98.20;;;;;;4892965;29;20472;-72
2021/11/29 08:18:33;;;;;;;1.70;1.53;;;2.00;98.20;;;;;;4902096;29;20470;-75
2021/11/29 08:21:01;;;;;;;1.70;1.50;;;2.00;98.20;;;;;;4884300;29;21010;-74
2021/11/29 08:23:28;;;;;;;1.60;1.50;;;2.10;98.20;;;;;;4899626;29;20973;-75
2021/11/29 08:25:55;;;;;;;1.60;1.50;;;2.10;98.20;;;;;;4885858;29;20598;-74
2021/11/29 08:28:23;;;;;;;1.63;1.50;;;2.10;98.20;;;;;;4912303;29;20475;-74
2021/11/29 08:30:50;;;;;;;1.67;1.57;;;2.10;98.20;;;;;;4883429;29;20490;-74
2021/11/29 08:33:17;;;;;;;1.70;1.50;;;2.20;98.20;;;;;;4911035;29;20524;-78
2021/11/29 08:35:46;;;;;;;1.63;1.50;;;2.20;98.20;;;;;;4897607;29;20488;-75
2021/11/29 08:38:16;;;;;;;1.60;1.50;;;2.20;98.20;;;;;;4887219;29;20480;-73
2021/11/29 08:40:45;;;;;;;1.70;1.60;;;2.20;98.20;;;;;;4906656;29;20500;-76
2021/11/29 08:43:16;;;;;;;1.63;1.50;;;2.20;98.20;;;;;;4886210;29;20572;-76
2021/11/29 08:45:44;;;;;;;1.63;1.50;;;2.30;98.20;;;;;;4884330;29;20503;-75
2021/11/29 08:48:12;;;;;;;1.70;1.50;;;2.30;98.20;;;;;;4901017;29;20493;-76
2021/11/29 08:50:42;;;;;;;1.80;1.70;;;2.40;98.20;;;;;;4887947;29;20496;-77
2021/11/29 08:53:12;;;;;;;1.60;1.50;;;2.50;98.20;;;;;;4897717;29;20543;-76
2021/11/29 08:55:41;;;;;;;1.63;1.50;;;2.60;98.20;;;;;;4892104;29;20477;-73
2021/11/29 08:58:11;;;;;;;1.60;1.50;;;2.60;98.20;;;;;;4898034;29;20601;-76
2021/11/29 09:00:41;;;;;;;1.70;1.50;;;2.70;98.20;;;;;;4889265;29;20489;-76
2021/11/29 09:03:09;;;;;;;2.53;2.33;;;2.80;98.20;;;;;;4894865;29;20486;-75
2021/11/29 09:05:38;;;;;;;1.60;1.50;;;2.90;98.20;;;;;;4892134;29;20883;-74
2021/11/29 09:08:06;;;;;;;1.63;1.40;;;3.00;98.20;;;;;;4890171;29;20489;-74
2021/11/29 09:10:33;;;;;;;1.70;1.50;;;3.00;98.20;;;;;;4888072;29;20546;-77
2021/11/29 09:13:02;;;;;;;1.70;1.60;;;3.00;98.20;;;;;;4897305;29;20487;-75
2021/11/29 09:15:29;;;;;;;1.67;1.47;;;3.00;98.20;;;;;;4887824;29;20505;-77
2021/11/29 09:17:56;;;;;;;1.70;1.60;;;3.10;98.20;;;;;;4896036;29;20494;-77
2021/11/29 09:20:27;;;;;;;1.60;1.40;;;3.10;98.20;;;;;;4894489;29;21064;-76
2021/11/29 09:22:55;;;;;;;1.67;1.43;;;3.10;98.20;;;;;;4899878;29;20500;-76
2021/11/29 09:25:24;;;;;;;2.00;1.80;;;3.10;98.20;;;;;;4898223;29;21159;-75
2021/11/29 09:27:51;;;;;;;1.70;1.50;;;3.10;98.20;;;;;;4896908;29;20492;-79
2021/11/29 09:30:20;;;;;;;1.70;1.50;;;3.10;98.20;;;;;;4902866;29;20500;-75
2021/11/29 09:32:48;;;;;;;1.70;1.50;;;3.10;98.20;;;;;;4882817;29;20493;-74
2021/11/29 09:35:17;;;;;;;1.63;1.40;;;3.10;98.20;;;;;;4896568;29;20876;-75
2021/11/29 09:37:45;;;;;;;1.60;1.30;;;3.10;98.20;;;;;;4882119;29;20689;-75
2021/11/29 09:40:16;;;;;;;1.60;1.50;;;3.20;98.20;;;;;;4895725;29;20823;-77
2021/11/29 09:42:44;;;;;;;1.70;1.50;;;3.20;98.20;;;;;;4902921;29;20583;-75
2021/11/29 09:45:13;;;;;;;1.67;1.47;;;3.20;98.20;;;;;;4894191;29;20785;-73
2021/11/29 09:47:42;;;;;;;1.93;1.83;;;3.20;98.20;;;;;;4903549;29;20594;-75
2021/11/29 09:50:11;;;;;;;1.67;1.40;;;3.20;98.20;;;;;;4891332;29;20993;-74
2021/11/29 09:52:38;;;;;;;1.70;1.57;;;3.20;98.20;;;;;;4894521;29;20492;-76
2021/11/29 09:55:08;;;;;;;1.70;1.60;;;3.20;98.20;;;;;;4896200;29;20469;-77
2021/11/29 09:57:39;;;;;;;1.67;1.40;;;3.20;98.20;;;;;;4894517;29;20637;-74
2021/11/29 10:00:08;;;;;;;1.70;1.50;;;3.20;98.20;;;;;;4897758;29;20512;-76
2021/11/29 10:02:36;;;;;;;1.60;1.50;;;3.20;98.20;;;;;;4900504;29;20496;-77
2021/11/29 10:05:05;;;;;;;2.10;1.90;;;3.30;98.20;;;;;;4895616;29;20996;-76
2021/11/29 10:07:37;;;;;;;1.70;1.50;;;3.40;98.20;;;;;;4893438;29;20990;-76
2021/11/29 10:10:13;;;;;;;1.70;1.50;;;3.50;98.20;;;;;;4897510;29;20745;-77
2021/11/29 10:12:40;;;;;;;1.60;1.40;;;3.50;98.20;;;;;;4900802;29;20999;-76
2021/11/29 10:15:19;;;;;;;1.63;1.50;;;3.60;98.20;;;;;;4886556;29;20486;-76
2021/11/29 10:17:48;;;;;;;1.70;1.50;;;3.70;98.20;;;;;;4899536;29;20492;-76
2021/11/29 10:20:16;;;;;;;1.67;1.40;;;3.70;98.20;;;;;;4901774;29;21004;-75
2021/11/29 10:22:57;;;;;;;1.70;1.47;;;3.70;98.20;;;;;;4893911;29;20487;-75
2021/11/29 10:25:25;;;;;;;1.70;1.40;;;3.70;98.20;;;;;;4893019;29;20523;-77
2021/11/29 10:27:52;;;;;;;1.67;1.40;;;3.70;98.20;;;;;;4889978;29;20607;-73
2021/11/29 10:30:22;;;;;;;1.70;1.50;;;3.70;98.20;;;;;;4895258;29;20576;-77
2021/11/29 10:32:50;;;;;;;1.70;1.50;;;3.70;98.20;;;;;;4880389;29;20543;-78
2021/11/29 10:35:32;;;;;;;1.67;1.40;;;3.70;98.20;;;;;;4899203;29;20474;-78
2021/11/29 10:38:01;;;;;;;1.63;1.40;;;3.70;98.20;;;;;;4887098;29;20525;-75
2021/11/29 10:40:29;;;;;;;1.60;1.40;;;3.70;98.20;;;;;;4890824;29;20493;-75
2021/11/29 10:43:05;;;;;;;1.63;1.40;;;3.70;98.20;;;;;;4889197;29;20484;-76
2021/11/29 10:45:36;;;;;;;1.70;1.40;;;3.70;98.20;;;;;;4894980;29;20481;-75
2021/11/29 10:48:04;;;;;;;1.60;1.40;;;3.70;98.20;;;;;;4887928;29;20502;-75
2021/11/29 10:50:32;;;;;;;1.67;1.50;;;3.70;98.20;;;;;;4888938;29;20892;-76
2021/11/29 10:53:12;;;;;;;1.70;1.50;;;3.70;98.20;;;;;;4890002;29;20483;-76
2021/11/29 10:55:59;;;;;;;1.63;1.40;;;3.70;98.20;;;;;;4895797;29;21268;-74
2021/11/29 10:58:28;;;;;;;1.63;1.40;;;3.70;98.20;;;;;;4887441;29;20516;-75
2021/11/29 11:00:58;;;;;;;1.70;1.60;;;3.80;98.20;;;;;;4884073;29;20492;-76
2021/11/29 11:03:25;;;;;;;1.60;1.40;;;3.80;98.20;;;;;;4900915;29;20465;-75
2021/11/29 11:06:02;;;;;;;1.63;1.40;;;3.80;98.20;;;;;;4889962;29;20476;-76
2021/11/29 11:08:34;;;;;;;1.60;1.47;;;3.70;98.20;;;;;;4905827;29;20492;-75
2021/11/29 11:11:02;;;;;;;1.67;1.40;;;3.70;98.20;;;;;;4872407;29;20489;-75
2021/11/29 11:13:31;;;;;;;1.60;1.40;;;3.80;98.20;;;;;;4897325;29;20625;-76
2021/11/29 11:15:58;;;;;;;1.67;1.50;;;3.80;98.20;;;;;;4887044;29;20475;-74
2021/11/29 11:18:39;;;;;;;1.60;1.40;;;3.80;98.20;;;;;;4900008;29;20923;-75
2021/11/29 11:21:17;;;;;;;1.67;1.40;;;3.80;98.20;;;;;;4878343;29;20484;-76
2021/11/29 11:23:45;;;;;;;1.60;1.40;;;3.80;98.20;;;;;;4901529;29;20537;-75
2021/11/29 11:26:32;;;;;;;1.70;1.60;;;3.80;98.20;;;;;;4879598;29;20484;-74
2021/11/29 11:28:59;;;;;;;1.60;1.40;;;3.80;98.20;;;;;;4905060;29;20471;-77
2021/11/29 11:31:27;;;;;;;1.70;1.50;;;3.90;98.20;;;;;;4884974;29;20489;-77
2021/11/29 11:33:56;;;;;;;1.67;1.40;;;3.90;98.20;;;;;;4899811;29;20488;-76
2021/11/29 11:36:26;;;;;;;1.63;1.33;;;3.90;98.20;;;;;;4881725;29;21086;-77
2021/11/29 11:38:53;;;;;;;1.70;1.50;;;4.00;98.20;;;;;;4901754;29;20479;-79
2021/11/29 11:41:20;;;;;;;1.60;1.40;;;4.00;98.20;;;;;;4885996;29;20489;-77
2021/11/29 11:43:49;;;;;;;1.70;1.50;;;4.00;98.20;;;;;;4896640;29;20469;-79
2021/11/29 11:46:19;;;;;;;1.60;1.40;;;4.10;98.20;;;;;;4879429;29;20721;-76
2021/11/29 11:48:47;;;;;;;2.57;2.37;;;4.10;98.20;;;;;;4901272;29;20479;-78
2021/11/29 11:51:14;;;;;;;1.63;1.40;;;4.10;98.20;;;;;;4887653;29;20493;-75
2021/11/29 11:53:43;;;;;;;1.63;1.40;;;4.20;98.20;;;;;;4908603;29;20469;-76
2021/11/29 11:56:10;;;;;;;1.67;1.43;;;4.20;98.20;;;;;;4892257;29;20542;-76
2021/11/29 11:58:44;;;;;;;1.60;1.50;;;4.30;98.20;;;;;;4910570;29;20851;-76
2021/11/29 12:01:16;;;;;;;1.63;1.40;;;4.40;98.20;;;;;;4886629;29;20510;-76
2021/11/29 12:03:48;;;;;;;1.60;1.40;;;4.40;98.20;;;;;;4909732;29;20725;-76
2021/11/29 12:06:17;;;;;;;1.70;1.50;;;4.50;98.20;;;;;;4892318;29;21196;-77
2021/11/29 12:08:49;;;;;;;1.60;1.37;;;4.50;98.20;;;;;;4914094;29;20469;-74
2021/11/29 12:11:39;;;;;;;1.70;1.40;;;4.60;98.20;;;;;;4877117;29;20490;-74
2021/11/29 12:14:17;;;;;;;1.63;1.40;;;4.70;98.20;;;;;;4889437;29;20469;-75
2021/11/29 12:16:46;;;;;;;1.67;1.50;;;4.70;98.20;;;;;;4890898;29;20484;-77
2021/11/29 12:19:42;;;;;;;1.63;1.40;;;4.80;98.20;;;;;;4903012;29;20468;-77
2021/11/29 12:22:33;;;;;;;1.63;1.30;;;4.80;98.20;;;;;;4890925;29;20503;-75
2021/11/29 12:25:17;;;;;;;1.63;1.30;;;4.80;98.20;;;;;;4889737;29;21005;-77
2021/11/29 12:27:48;;;;;;;1.67;1.40;;;4.90;98.20;;;;;;4900034;29;20483;-77
2021/11/29 12:30:17;;;;;;;1.67;1.30;;;4.90;98.20;;;;;;4896178;29;20493;-78
2021/11/29 12:32:53;;;;;;;1.67;1.40;;;4.90;98.20;;;;;;4897180;29;20488;-77
2021/11/29 12:35:31;;;;;;;1.70;1.40;;;4.90;98.20;;;;;;4896774;29;20508;-75
2021/11/29 12:38:04;;;;;;;1.70;1.40;;;4.90;98.20;;;;;;4891876;29;20480;-76
2021/11/29 12:40:44;;;;;;;1.63;1.40;;;4.90;98.20;;;;;;4895634;29;21003;-77
2021/11/29 12:43:11;;;;;;;1.70;1.40;;;4.90;98.20;;;;;;4896920;29;20505;-78
2021/11/29 12:45:38;;;;;;;1.70;1.40;;;4.90;98.20;;;;;;4896759;29;20556;-76
2021/11/29 12:48:17;;;;;;;1.70;1.50;;;4.90;98.20;;;;;;4897165;29;20480;-79
2021/11/29 12:50:55;;;;;;;1.60;1.30;;;4.90;98.20;;;;;;4898848;29;20568;-80
2021/11/29 12:53:40;;;;;;;1.60;1.30;;;4.90;98.20;;;;;;4890263;29;20489;-79
2021/11/29 12:56:24;;;;;;;1.67;1.30;;;4.90;98.20;;;;;;4893171;29;20481;-81
2021/11/29 12:58:57;;;;;;;1.60;1.30;;;5.00;98.20;;;;;;4911091;29;20521;-77
2021/11/29 13:01:24;;;;;;;1.63;1.30;;;5.00;98.20;;;;;;4881662;29;20487;-77
2021/11/29 13:03:54;;;;;;;1.70;1.50;;;5.10;98.20;;;;;;4905520;29;20513;-80
2021/11/29 13:06:24;;;;;;;1.60;1.40;;;5.10;98.20;;;;;;4882349;29;20486;-76